Weather at Carcassonne Airport

Public forecast

Using degrees Celsius for public forecast. Weather courtesy of forecast.io.

Current aviation weather report (METAR) for Carcassonne Airport

2024/05/28 04:00 (retrieved 33 minutes ago)

LFMK 280400Z AUTO 26008KT 230V300 9999 SCT050 12/11 Q1022 NOSIG

Closest aviation forecast (TAF) to Carcassonne Airport

Forecast is more than 6 hours old.

Closest forecast is Cazaux (BA 120) Air Base, 168.2 nm (311.6 km) WNW.

2024/05/27 19:57 (retrieved 9 hours ago)

TAF LFBC 271950Z 2719/2815 CNL